Time;durP1;ratioP1;P1;durP2;ratioP2;P2;SDS_P1;SDS_P2;PMS_P1;PMS_P2;Temp;Humidity;BMP_temperature;BMP_pressure;BME280_temperature;BME280_humidity;BME280_pressure;Samples;Min_cycle;Max_cycle;Signal;HPM_P1;HPM_P2
2022/01/02 00:01:02;;;;;;;3.72;1.90;;;;;;;-4.70;66.38;98195.63;5070161;28;20435;-56
2022/01/02 00:03:54;;;;;;;3.50;1.85;;;;;;;-4.68;66.93;98198.81;5071347;28;20109;-56
2022/01/02 00:06:52;;;;;;;4.18;2.10;;;;;;;-4.84;66.88;98199.72;5056844;28;20420;-57
2022/01/02 00:09:37;;;;;;;3.20;1.83;;;;;;;-4.80;67.66;98192.41;5072699;28;20136;-57
2022/01/02 00:12:24;;;;;;;3.55;1.88;;;;;;;-4.81;67.74;98191.63;5071780;28;20047;-57
2022/01/02 00:15:11;;;;;;;4.55;2.20;;;;;;;-4.74;68.15;98199.50;5072258;28;20496;-57
2022/01/02 00:17:57;;;;;;;3.20;1.60;;;;;;;-4.69;67.59;98188.66;5073152;28;20075;-57
2022/01/02 00:20:47;;;;;;;5.82;2.15;;;;;;;-4.68;68.35;98201.41;5074909;28;20079;-55
2022/01/02 00:23:40;;;;;;;2.38;1.92;;;;;;;-4.68;69.24;98185.88;5075698;28;20047;-57
2022/01/02 00:26:34;;;;;;;2.90;1.90;;;;;;;-4.62;69.29;98202.50;5073999;28;20051;-56
2022/01/02 00:29:20;;;;;;;3.38;1.75;;;;;;;-4.63;69.45;98200.91;5074064;28;20409;-56
2022/01/02 00:32:07;;;;;;;3.70;2.13;;;;;;;-4.59;70.68;98209.94;5073881;28;20186;-56
2022/01/02 00:34:54;;;;;;;3.10;2.15;;;;;;;-4.55;69.53;98211.22;5074748;28;20062;-57
2022/01/02 00:37:40;;;;;;;2.70;1.83;;;;;;;-4.73;70.23;98205.50;5074977;28;20056;-57
2022/01/02 00:40:24;;;;;;;1.92;1.70;;;;;;;-4.83;70.20;98216.03;5074656;28;20145;-57
2022/01/02 00:43:12;;;;;;;4.47;2.40;;;;;;;-4.75;70.21;98203.06;5073747;28;20055;-57
2022/01/02 00:45:57;;;;;;;3.42;2.20;;;;;;;-4.74;69.45;98216.78;5074720;28;20102;-58
2022/01/02 00:48:44;;;;;;;3.50;2.15;;;;;;;-4.89;68.99;98214.09;5073696;28;20052;-56
2022/01/02 00:51:46;;;;;;;2.17;1.80;;;;;;;-5.00;69.64;98217.84;5074646;28;20540;-58
2022/01/02 00:54:33;;;;;;;2.28;1.88;;;;;;;-5.01;69.89;98234.34;5060087;28;20572;-57
2022/01/02 00:57:18;;;;;;;4.60;2.80;;;;;;;-5.07;70.25;98229.84;5074686;28;20052;-56
2022/01/02 01:00:16;;;;;;;4.18;2.78;;;;;;;-5.07;71.04;98224.66;5073215;28;20055;-56
2022/01/02 01:03:07;;;;;;;3.47;2.35;;;;;;;-5.13;70.56;98227.91;5073555;28;20103;-59
2022/01/02 01:05:57;;;;;;;3.35;2.42;;;;;;;-5.20;71.58;98234.72;5059030;28;20206;-57
2022/01/02 01:08:42;;;;;;;4.78;2.78;;;;;;;-5.16;71.20;98231.63;5073601;28;20051;-57
2022/01/02 01:11:28;;;;;;;3.63;2.53;;;;;;;-5.09;71.23;98237.78;5058787;28;20056;-58
2022/01/02 01:14:12;;;;;;;3.90;2.45;;;;;;;-5.10;70.88;98246.47;5073255;28;20059;-55
2022/01/02 01:16:57;;;;;;;4.45;2.22;;;;;;;-5.14;70.49;98249.56;5072913;28;20125;-57
2022/01/02 01:19:43;;;;;;;4.32;2.63;;;;;;;-5.21;70.88;98251.97;5073034;28;20075;-57
2022/01/02 01:22:29;;;;;;;3.30;2.60;;;;;;;-5.25;70.69;98255.88;5073105;28;20500;-56
2022/01/02 01:25:18;;;;;;;5.00;3.15;;;;;;;-5.17;70.53;98242.94;5072967;28;20110;-56
2022/01/02 01:28:02;;;;;;;4.85;3.10;;;;;;;-5.23;69.65;98238.44;5072894;28;20051;-56
2022/01/02 01:30:49;;;;;;;3.78;2.85;;;;;;;-5.12;70.31;98229.53;5058354;28;20052;-59
2022/01/02 01:33:33;;;;;;;3.90;2.40;;;;;;;-5.20;69.74;98243.28;5074185;28;20040;-57
2022/01/02 01:36:18;;;;;;;3.17;2.13;;;;;;;-5.22;69.76;98234.06;5072789;28;20482;-56
2022/01/02 01:39:04;;;;;;;2.67;2.40;;;;;;;-5.18;69.95;98233.56;5058629;28;20520;-56
2022/01/02 01:41:51;;;;;;;3.30;2.50;;;;;;;-5.19;70.30;98229.38;5073751;28;20047;-56
2022/01/02 01:44:51;;;;;;;5.43;2.20;;;;;;;-5.17;69.80;98232.63;5073507;28;20063;-56
2022/01/02 01:47:36;;;;;;;2.97;2.22;;;;;;;-5.18;70.05;98250.84;5072592;28;20086;-56
2022/01/02 01:50:30;;;;;;;5.75;2.92;;;;;;;-5.15;70.11;98241.00;5072279;28;20421;-57
2022/01/02 01:53:15;;;;;;;5.03;2.67;;;;;;;-5.11;70.58;98234.53;5073866;28;20039;-56
2022/01/02 01:56:00;;;;;;;4.28;2.70;;;;;;;-5.11;70.24;98233.72;5072124;28;20055;-57
2022/01/02 01:58:48;;;;;;;3.38;2.63;;;;;;;-5.10;70.38;98245.66;5072657;28;20091;-56
2022/01/02 02:01:32;;;;;;;5.20;2.50;;;;;;;-5.07;70.39;98243.56;5057927;28;20051;-57
2022/01/02 02:04:17;;;;;;;6.25;3.20;;;;;;;-5.14;71.00;98236.66;5072343;28;20087;-56
2022/01/02 02:07:03;;;;;;;3.30;2.78;;;;;;;-5.17;71.30;98247.31;5058092;28;20137;-57
2022/01/02 02:10:11;;;;;;;5.30;2.80;;;;;;;-5.09;71.56;98250.69;5072362;28;20051;-57
2022/01/02 02:12:58;;;;;;;3.97;2.97;;;;;;;-5.10;70.37;98258.59;5072262;28;20396;-56
2022/01/02 02:15:45;;;;;;;3.33;2.53;;;;;;;-5.13;70.93;98269.25;5072047;28;20102;-57
2022/01/02 02:18:30;;;;;;;5.15;2.35;;;;;;;-5.13;70.11;98280.41;5071925;28;20102;-57
2022/01/02 02:21:14;;;;;;;6.90;3.00;;;;;;;-5.17;70.53;98270.56;5071553;28;20043;-56
2022/01/02 02:23:59;;;;;;;5.95;2.95;;;;;;;-5.13;70.73;98261.50;5072686;28;20152;-56
2022/01/02 02:26:44;;;;;;;3.00;2.25;;;;;;;-5.23;70.07;98268.66;5071834;28;20067;-56
2022/01/02 02:29:29;;;;;;;3.42;2.45;;;;;;;-5.26;70.54;98272.34;5057597;28;20051;-55
2022/01/02 02:32:13;;;;;;;6.45;3.20;;;;;;;-5.26;70.28;98260.25;5071695;28;20055;-57
2022/01/02 02:34:58;;;;;;;3.80;2.47;;;;;;;-5.25;70.05;98261.84;5071221;28;20068;-57
2022/01/02 02:37:44;;;;;;;4.22;2.65;;;;;;;-5.37;70.72;98273.50;5071551;28;20051;-57
2022/01/02 02:40:32;;;;;;;7.28;2.95;;;;;;;-5.34;70.61;98278.31;5071167;28;20097;-55
2022/01/02 02:49:32;;;;;;;5.50;2.60;;;;;;;-5.39;70.18;98282.38;5071150;28;20472;-56
2022/01/02 02:52:44;;;;;;;6.18;3.10;;;;;;;-5.31;70.10;98292.69;5057394;28;20536;-57
2022/01/02 02:55:30;;;;;;;2.38;1.77;;;;;;;-5.34;69.55;98293.81;5071095;28;20585;-58
2022/01/02 03:01:24;;;;;;;3.85;2.25;;;;;;;-5.46;69.51;98333.06;5070920;28;20114;-57
2022/01/02 03:04:10;;;;;;;2.53;1.67;;;;;;;-5.58;69.30;98311.91;5072038;28;20070;-57
2022/01/02 03:06:55;;;;;;;5.05;2.63;;;;;;;-5.46;69.02;98331.28;5072016;28;20044;-57
2022/01/02 03:09:46;;;;;;;3.40;2.30;;;;;;;-5.48;68.91;98328.03;5057171;28;20079;-55
2022/01/02 03:12:32;;;;;;;2.80;1.90;;;;;;;-5.44;68.65;98331.09;5072001;28;20516;-57
2022/01/02 03:15:16;;;;;;;2.47;1.90;;;;;;;-5.44;68.27;98331.94;5070899;28;20089;-57
2022/01/02 03:18:01;;;;;;;4.78;2.25;;;;;;;-5.53;69.55;98323.38;5072258;28;20083;-55
2022/01/02 03:20:46;;;;;;;1.70;1.33;;;;;;;-5.52;68.91;98335.31;5056535;28;20098;-56
2022/01/02 03:23:31;;;;;;;3.35;2.60;;;;;;;-5.54;68.40;98336.44;5070857;28;20093;-56
2022/01/02 03:26:17;;;;;;;4.90;2.10;;;;;;;-5.50;67.86;98338.56;5071346;28;20090;-55
2022/01/02 03:29:02;;;;;;;5.88;2.33;;;;;;;-5.48;68.15;98344.34;5070640;28;20521;-57
2022/01/02 03:31:46;;;;;;;6.85;2.28;;;;;;;-5.48;67.57;98351.28;5070136;28;20055;-55
2022/01/02 03:34:31;;;;;;;3.20;1.65;;;;;;;-5.57;67.78;98357.41;5070394;28;20529;-56
2022/01/02 03:37:16;;;;;;;2.63;2.22;;;;;;;-5.54;68.34;98359.69;5071525;28;20093;-55
2022/01/02 03:40:02;;;;;;;2.92;2.05;;;;;;;-5.60;68.08;98362.91;5070460;28;20528;-54
2022/01/02 03:42:48;;;;;;;4.60;1.77;;;;;;;-5.71;68.03;98370.00;5070787;28;20101;-56
2022/01/02 03:45:33;;;;;;;6.35;1.67;;;;;;;-5.72;67.55;98367.56;5070636;28;20106;-57
2022/01/02 03:48:18;;;;;;;2.67;2.17;;;;;;;-5.72;67.48;98381.25;5056230;28;20074;-56
2022/01/02 03:51:03;;;;;;;4.95;2.15;;;;;;;-5.68;67.49;98386.91;5070450;28;20051;-54
2022/01/02 03:53:49;;;;;;;2.33;1.42;;;;;;;-5.65;67.27;98381.44;5071378;28;20048;-56
2022/01/02 03:56:33;;;;;;;2.42;1.77;;;;;;;-5.65;66.98;98378.84;5070442;28;20062;-55
2022/01/02 03:59:17;;;;;;;1.83;1.42;;;;;;;-5.71;67.38;98377.75;5070253;28;20060;-55
2022/01/02 04:02:02;;;;;;;4.53;2.25;;;;;;;-5.61;66.78;98397.44;5071513;28;20604;-55
2022/01/02 04:04:47;;;;;;;1.92;1.73;;;;;;;-5.74;66.75;98387.56;5056229;28;20122;-56
2022/01/02 04:07:31;;;;;;;5.63;2.25;;;;;;;-5.76;67.43;98402.41;5071600;28;20086;-56
2022/01/02 04:10:17;;;;;;;2.53;2.00;;;;;;;-5.73;67.18;98402.09;5070051;28;20528;-56
2022/01/02 04:13:02;;;;;;;4.82;2.60;;;;;;;-5.72;67.15;98394.16;5070489;28;20055;-56
2022/01/02 04:15:46;;;;;;;2.40;2.03;;;;;;;-5.84;66.49;98405.75;5056131;28;20047;-57
2022/01/02 04:18:30;;;;;;;4.30;1.98;;;;;;;-5.75;66.98;98411.75;5070463;28;20044;-55
2022/01/02 04:21:15;;;;;;;3.50;2.13;;;;;;;-5.83;66.63;98409.94;5070035;28;20567;-57
2022/01/02 04:23:59;;;;;;;3.22;1.98;;;;;;;-5.85;66.86;98406.72;5070344;28;20094;-57
2022/01/02 04:26:46;;;;;;;2.00;1.50;;;;;;;-5.88;66.74;98412.22;5070070;28;20090;-57
2022/01/02 04:29:31;;;;;;;3.53;1.80;;;;;;;-5.95;66.66;98409.44;5070223;28;20051;-57
2022/01/02 04:32:16;;;;;;;2.60;1.50;;;;;;;-5.97;66.16;98426.06;5069795;28;20047;-57
2022/01/02 04:35:02;;;;;;;2.78;2.20;;;;;;;-5.97;65.63;98420.88;5069931;28;20059;-55
2022/01/02 04:37:47;;;;;;;2.28;1.88;;;;;;;-5.94;66.24;98412.88;5070068;28;20047;-57
2022/01/02 04:40:32;;;;;;;3.50;2.03;;;;;;;-6.03;67.94;98417.19;5069790;28;20047;-57
2022/01/02 04:43:16;;;;;;;3.33;1.77;;;;;;;-6.12;68.72;98419.88;5070008;28;20106;-56
2022/01/02 04:46:01;;;;;;;2.50;1.83;;;;;;;-6.14;69.37;98420.03;5069777;28;20051;-57
2022/01/02 04:48:45;;;;;;;2.60;2.10;;;;;;;-6.15;68.80;98417.59;5069935;28;20126;-55
2022/01/02 04:51:30;;;;;;;5.32;1.65;;;;;;;-6.27;68.17;98415.28;5070879;28;20093;-54
2022/01/02 04:54:15;;;;;;;1.77;1.55;;;;;;;-6.34;68.55;98390.28;5069549;28;20051;-56
2022/01/02 04:57:00;;;;;;;4.78;1.83;;;;;;;-6.16;68.68;98401.31;5055826;28;20135;-56
2022/01/02 04:59:44;;;;;;;3.25;1.92;;;;;;;-6.31;68.61;98406.25;5069624;28;20465;-57
2022/01/02 05:02:28;;;;;;;2.40;1.88;;;;;;;-6.36;68.51;98416.22;5071109;28;20503;-55
2022/01/02 05:05:13;;;;;;;1.58;1.30;;;;;;;-6.49;68.74;98426.13;5070721;28;20055;-57
2022/01/02 05:07:58;;;;;;;1.92;1.60;;;;;;;-6.50;69.65;98409.03;5073402;28;20043;-56
2022/01/02 05:10:42;;;;;;;4.82;2.13;;;;;;;-6.52;69.65;98416.13;5074035;28;20077;-57
2022/01/02 05:13:27;;;;;;;2.53;1.77;;;;;;;-6.51;69.00;98417.75;5073448;28;20048;-55
2022/01/02 05:16:13;;;;;;;2.08;1.77;;;;;;;-6.54;68.03;98412.88;5072842;28;20143;-56
2022/01/02 05:18:58;;;;;;;1.55;1.40;;;;;;;-6.48;68.47;98425.16;5059461;28;20098;-55
2022/01/02 05:21:42;;;;;;;3.60;1.60;;;;;;;-6.50;68.05;98417.59;5072879;28;20102;-55
2022/01/02 05:24:26;;;;;;;3.40;1.40;;;;;;;-6.68;69.38;98432.28;5073170;28;20047;-56
2022/01/02 05:27:11;;;;;;;5.00;1.80;;;;;;;-6.49;69.69;98442.41;5072633;28;20129;-56
2022/01/02 05:29:56;;;;;;;2.08;1.77;;;;;;;-6.48;69.56;98445.78;5074015;28;20040;-57
2022/01/02 05:32:40;;;;;;;2.88;2.15;;;;;;;-6.53;69.89;98451.44;5058648;28;20430;-57
2022/01/02 05:35:25;;;;;;;1.73;1.40;;;;;;;-6.50;69.80;98452.88;5072759;28;20114;-57
2022/01/02 05:38:09;;;;;;;2.45;2.03;;;;;;;-6.51;69.70;98464.94;5072670;28;20052;-56
2022/01/02 05:40:55;;;;;;;4.25;2.22;;;;;;;-6.49;68.25;98472.56;5072245;28;20429;-57
2022/01/02 05:43:40;;;;;;;2.20;1.60;;;;;;;-6.53;68.03;98469.47;5073949;28;20066;-56
2022/01/02 05:46:25;;;;;;;4.30;2.05;;;;;;;-6.64;66.55;98488.56;5072688;28;20531;-56
2022/01/02 05:49:10;;;;;;;1.13;1.10;;;;;;;-6.65;66.97;98491.28;5072413;28;20098;-57
2022/01/02 05:51:54;;;;;;;3.65;1.70;;;;;;;-6.64;67.20;98498.06;5072674;28;20130;-57
2022/01/02 05:54:39;;;;;;;1.50;1.40;;;;;;;-6.70;67.43;98496.09;5072387;28;20548;-54
2022/01/02 05:57:24;;;;;;;3.75;1.83;;;;;;;-6.64;68.42;98509.19;5072617;28;20611;-57
2022/01/02 06:00:10;;;;;;;4.45;1.90;;;;;;;-6.65;68.00;98502.41;5072047;28;20105;-57
2022/01/02 06:03:06;;;;;;;1.80;1.60;;;;;;;-6.70;68.82;98504.63;5073577;28;20132;-56
2022/01/02 06:05:51;;;;;;;6.10;2.10;;;;;;;-6.61;68.86;98520.16;5072423;28;20051;-57
2022/01/02 06:08:37;;;;;;;1.25;1.15;;;;;;;-6.75;69.56;98506.81;5072010;28;20145;-56
2022/01/02 06:11:21;;;;;;;3.05;1.65;;;;;;;-6.77;69.88;98519.03;5073344;28;20082;-57
2022/01/02 06:14:05;;;;;;;3.88;1.67;;;;;;;-6.75;68.83;98511.97;5071875;28;20060;-56
2022/01/02 06:16:50;;;;;;;1.73;1.60;;;;;;;-6.80;68.18;98524.50;5072813;28;20042;-57
2022/01/02 06:19:34;;;;;;;6.13;1.70;;;;;;;-6.87;69.15;98513.16;5071795;28;20052;-57
2022/01/02 06:22:19;;;;;;;5.20;1.60;;;;;;;-6.82;69.53;98515.28;5072035;28;20479;-56
2022/01/02 06:25:04;;;;;;;1.50;1.40;;;;;;;-6.82;69.04;98507.56;5072890;28;20101;-58
2022/01/02 06:27:49;;;;;;;3.00;1.67;;;;;;;-6.86;68.15;98504.47;5071864;28;20048;-57
2022/01/02 06:30:35;;;;;;;4.38;2.25;;;;;;;-6.95;68.86;98513.09;5071547;28;20476;-57
2022/01/02 06:33:19;;;;;;;2.45;2.25;;;;;;;-6.88;68.97;98507.22;5057916;28;20118;-58
2022/01/02 06:36:04;;;;;;;4.72;2.55;;;;;;;-6.79;68.70;98500.38;5072385;28;20521;-56
2022/01/02 06:38:48;;;;;;;3.20;1.95;;;;;;;-6.73;68.20;98520.38;5071638;28;20052;-57
2022/01/02 06:41:33;;;;;;;4.63;2.13;;;;;;;-6.73;68.58;98504.91;5071577;28;20055;-56
2022/01/02 06:44:18;;;;;;;1.85;1.58;;;;;;;-6.67;68.95;98508.69;5071297;28;20075;-57
2022/01/02 06:47:05;;;;;;;1.98;1.67;;;;;;;-6.73;68.60;98504.13;5057742;28;20050;-56
2022/01/02 06:49:49;;;;;;;3.15;2.00;;;;;;;-6.79;68.42;98505.53;5071321;28;20417;-58
2022/01/02 06:52:34;;;;;;;2.75;1.92;;;;;;;-6.76;68.85;98512.16;5072659;28;20102;-56
2022/01/02 06:55:18;;;;;;;2.95;2.10;;;;;;;-6.70;68.00;98503.81;5072073;28;20544;-57
2022/01/02 06:58:05;;;;;;;6.20;2.13;;;;;;;-6.56;68.16;98505.03;5057325;28;20047;-57
2022/01/02 07:00:51;;;;;;;4.13;2.65;;;;;;;-6.37;67.99;98497.13;5070877;28;20095;-56
2022/01/02 07:03:37;;;;;;;2.75;2.25;;;;;;;-6.46;67.74;98503.19;5071143;28;20544;-55
2022/01/02 07:06:22;;;;;;;3.70;2.47;;;;;;;-6.26;67.40;98491.72;5071085;28;20096;-57
2022/01/02 07:09:07;;;;;;;3.50;2.30;;;;;;;-6.20;67.06;98506.59;5070872;28;20431;-57
2022/01/02 07:11:51;;;;;;;2.70;2.10;;;;;;;-6.18;67.04;98520.16;5072090;28;20066;-56
2022/01/02 07:14:35;;;;;;;5.45;2.45;;;;;;;-6.12;66.52;98530.81;5071822;28;20117;-57
2022/01/02 07:17:20;;;;;;;7.70;2.70;;;;;;;-6.08;66.53;98521.81;5070847;28;20417;-58
2022/01/02 07:20:05;;;;;;;3.00;2.22;;;;;;;-6.17;66.62;98529.50;5071568;28;20106;-56
2022/01/02 07:22:50;;;;;;;2.30;1.98;;;;;;;-6.10;66.15;98534.84;5072193;28;20451;-57
2022/01/02 07:25:34;;;;;;;4.82;2.00;;;;;;;-6.09;66.28;98536.47;5071573;28;20047;-55
2022/01/02 07:28:20;;;;;;;5.45;2.45;;;;;;;-6.06;66.41;98535.34;5071587;28;20584;-57
2022/01/02 07:31:04;;;;;;;7.85;3.00;;;;;;;-6.10;66.30;98536.63;5070410;28;20131;-56
2022/01/02 07:33:48;;;;;;;2.67;1.73;;;;;;;-6.29;66.47;98535.06;5071918;28;20105;-57
2022/01/02 07:36:33;;;;;;;2.65;2.13;;;;;;;-6.23;67.63;98531.88;5071316;28;20421;-58
2022/01/02 07:39:17;;;;;;;4.43;2.17;;;;;;;-6.09;67.68;98544.19;5071657;28;20101;-56
2022/01/02 07:42:02;;;;;;;3.63;2.10;;;;;;;-6.01;67.27;98543.44;5071295;28;20563;-57
2022/01/02 07:44:55;;;;;;;4.28;2.90;;;;;;;-5.92;67.48;98552.81;5070344;28;20176;-57
2022/01/02 07:47:40;;;;;;;3.55;2.20;;;;;;;-5.86;67.30;98559.16;5071509;28;20051;-55
2022/01/02 07:50:24;;;;;;;5.45;2.38;;;;;;;-5.86;67.35;98549.63;5071418;28;20132;-58
2022/01/02 07:53:08;;;;;;;3.85;2.58;;;;;;;-5.91;67.85;98559.63;5071606;28;20466;-58
2022/01/02 07:55:53;;;;;;;5.45;2.40;;;;;;;-5.79;67.34;98557.59;5070384;28;20063;-58
2022/01/02 07:58:37;;;;;;;4.30;2.65;;;;;;;-5.71;67.10;98558.44;5071800;28;20122;-56
2022/01/02 08:01:22;;;;;;;3.60;2.50;;;;;;;-5.73;66.86;98565.53;5071110;28;20421;-56
2022/01/02 08:04:07;;;;;;;4.45;2.80;;;;;;;-5.72;66.72;98554.22;5071507;28;20182;-57
2022/01/02 08:06:51;;;;;;;3.72;2.28;;;;;;;-5.51;66.77;98566.75;5071465;28;20043;-57
2022/01/02 08:09:36;;;;;;;4.18;2.38;;;;;;;-5.46;65.72;98576.63;5071197;28;20060;-57
2022/01/02 08:12:20;;;;;;;4.13;2.40;;;;;;;-5.47;65.19;98587.94;5071522;28;20047;-58
2022/01/02 08:15:05;;;;;;;4.68;2.80;;;;;;;-5.51;65.78;98590.00;5071127;28;20074;-55
2022/01/02 08:17:49;;;;;;;3.97;2.88;;;;;;;-5.70;66.07;98582.47;5071506;28;20132;-55
2022/01/02 08:20:33;;;;;;;6.60;3.03;;;;;;;-5.75;65.99;98582.94;5070970;28;20060;-57
2022/01/02 08:23:18;;;;;;;7.63;4.22;;;;;;;-5.66;66.88;98588.94;5071609;28;20059;-56
2022/01/02 08:26:02;;;;;;;6.72;2.97;;;;;;;-5.56;66.38;98588.84;5070943;28;20102;-55
2022/01/02 08:28:47;;;;;;;7.05;3.85;;;;;;;-5.66;65.80;98593.31;5070447;28;20094;-57
2022/01/02 08:31:31;;;;;;;5.20;3.60;;;;;;;-5.69;66.45;98588.44;5070861;28;20532;-56
2022/01/02 08:34:16;;;;;;;4.78;3.00;;;;;;;-5.73;66.45;98588.75;5070963;28;20479;-57
2022/01/02 08:37:00;;;;;;;5.63;2.90;;;;;;;-5.81;66.42;98588.72;5070772;28;20073;-56
2022/01/02 08:39:45;;;;;;;4.15;2.50;;;;;;;-5.80;66.11;98586.94;5073189;28;20300;-56
2022/01/02 08:42:29;;;;;;;6.57;3.40;;;;;;;-5.83;66.29;98589.81;5074751;28;20064;-56
2022/01/02 08:45:14;;;;;;;4.60;2.25;;;;;;;-5.81;66.29;98595.66;5073800;28;20418;-57
2022/01/02 08:47:59;;;;;;;5.55;2.72;;;;;;;-5.70;66.02;98592.81;5074695;28;20059;-54
2022/01/02 08:50:43;;;;;;;4.97;2.50;;;;;;;-5.80;65.86;98592.09;5074671;28;20071;-58
2022/01/02 08:53:28;;;;;;;4.75;2.65;;;;;;;-5.89;65.60;98593.81;5074791;28;20052;-57
2022/01/02 08:56:13;;;;;;;5.10;2.83;;;;;;;-5.88;65.95;98594.63;5074436;28;20094;-56
2022/01/02 08:58:58;;;;;;;4.38;2.53;;;;;;;-5.78;65.92;98600.50;5073313;28;20118;-57
2022/01/02 09:01:42;;;;;;;7.05;2.67;;;;;;;-5.78;66.16;98580.66;5074492;28;20090;-55
2022/01/02 09:04:27;;;;;;;3.58;2.40;;;;;;;-5.92;65.60;98586.38;5073269;28;20055;-56
2022/01/02 09:07:11;;;;;;;5.32;2.47;;;;;;;-5.86;65.12;98577.22;5074430;28;20123;-57
2022/01/02 09:09:55;;;;;;;6.57;2.53;;;;;;;-5.87;65.04;98586.75;5058693;28;20433;-57
2022/01/02 09:12:40;;;;;;;2.85;2.17;;;;;;;-5.95;65.03;98587.50;5073404;28;20066;-55
2022/01/02 09:15:25;;;;;;;3.33;2.55;;;;;;;-5.91;65.30;98589.75;5074010;28;20056;-55
2022/01/02 09:18:09;;;;;;;2.45;2.13;;;;;;;-5.93;64.81;98579.63;5074462;28;20151;-55
2022/01/02 09:20:54;;;;;;;4.65;2.05;;;;;;;-5.91;65.54;98569.13;5073828;28;20437;-56
2022/01/02 09:23:38;;;;;;;3.00;2.25;;;;;;;-6.05;65.29;98578.28;5074654;28;20052;-57
2022/01/02 09:26:23;;;;;;;3.75;2.05;;;;;;;-5.81;65.05;98572.41;5073785;28;20057;-55
2022/01/02 09:29:07;;;;;;;2.72;2.13;;;;;;;-5.73;64.93;98562.94;5074020;28;20090;-57
2022/01/02 09:31:52;;;;;;;5.65;2.42;;;;;;;-5.79;64.77;98570.50;5073718;28;20098;-55
2022/01/02 09:34:36;;;;;;;2.72;2.35;;;;;;;-5.70;65.07;98569.56;5073597;28;20071;-55
2022/01/02 09:37:21;;;;;;;2.53;2.17;;;;;;;-5.75;64.32;98561.47;5072669;28;20429;-55
2022/01/02 09:40:07;;;;;;;3.53;2.60;;;;;;;-5.85;64.27;98566.75;5073715;28;20129;-57
2022/01/02 09:42:52;;;;;;;2.95;2.35;;;;;;;-5.63;64.35;98569.75;5073474;28;20129;-56
2022/01/02 09:45:38;;;;;;;3.45;2.10;;;;;;;-5.60;64.00;98561.72;5072640;28;20502;-57
2022/01/02 09:48:23;;;;;;;3.55;2.53;;;;;;;-5.57;64.14;98574.31;5074177;28;20101;-54
2022/01/02 09:51:07;;;;;;;3.72;2.30;;;;;;;-5.46;63.04;98576.63;5073323;28;20048;-54
2022/01/02 09:53:53;;;;;;;2.88;2.38;;;;;;;-5.38;63.21;98579.25;5073421;28;20051;-54
2022/01/02 09:56:19;;;;;;;4.47;3.15;;;;;;;-5.38;63.47;98583.59;5073514;28;20196;-57
2022/01/02 09:58:45;;;;;;;27.25;7.40;;;;;;;-5.39;62.90;98575.03;5073879;28;20037;-57
2022/01/02 10:01:19;;;;;;;7.32;3.83;;;;;;;-5.35;62.76;98578.13;5073086;28;20399;-56
2022/01/02 10:03:55;;;;;;;7.97;3.72;;;;;;;-5.37;62.68;98577.47;5073660;28;20094;-56
2022/01/02 10:06:38;;;;;;;4.18;2.35;;;;;;;-5.59;62.84;98582.22;5072419;28;20070;-56
2022/01/02 10:09:04;;;;;;;3.05;2.30;;;;;;;-5.71;63.36;98594.59;5072007;28;20045;-56
2022/01/02 10:11:30;;;;;;;4.32;2.50;;;;;;;-5.77;63.41;98586.63;5071712;28;20131;-57
2022/01/02 10:14:02;;;;;;;3.70;1.58;;;;;;;-5.81;64.03;98593.88;5073035;28;20060;-56
2022/01/02 10:16:31;;;;;;;2.35;1.80;;;;;;;-5.89;63.90;98598.97;5072727;28;20413;-56
2022/01/02 10:18:59;;;;;;;5.20;2.50;;;;;;;-5.89;63.85;98590.44;5073141;28;20048;-56
2022/01/02 10:21:39;;;;;;;4.40;2.65;;;;;;;-5.87;64.77;98583.34;5072526;28;20310;-58
2022/01/02 10:24:19;;;;;;;3.70;2.28;;;;;;;-6.06;64.06;98598.09;5073021;28;20063;-56
2022/01/02 10:27:04;;;;;;;;;;;;;;;-6.06;64.66;98599.84;5073424;28;20052;-55
2022/01/02 10:30:03;;;;;;;5.75;2.25;;;;;;;-6.20;64.73;98604.59;5071433;28;20022;-57
2022/01/02 10:32:31;;;;;;;4.15;2.40;;;;;;;-6.27;64.61;98603.56;5071371;28;20531;-58
2022/01/02 10:35:26;;;;;;;3.90;2.30;;;;;;;-6.41;64.55;98604.13;5072107;28;20114;-55
2022/01/02 10:38:03;;;;;;;4.70;2.58;;;;;;;-6.46;65.36;98603.75;5072367;28;20044;-56
2022/01/02 10:40:40;;;;;;;6.45;2.78;;;;;;;-6.34;64.85;98612.88;5071041;28;20147;-53
2022/01/02 10:43:07;;;;;;;3.08;2.03;;;;;;;-6.30;64.51;98600.47;5054627;28;20079;-55
2022/01/02 10:45:43;;;;;;;4.53;2.40;;;;;;;-6.21;64.24;98615.06;5072515;28;20502;-56
2022/01/02 10:48:14;;;;;;;2.75;2.17;;;;;;;-6.23;64.67;98624.75;5072589;28;20571;-53
2022/01/02 10:51:01;;;;;;;5.25;2.78;;;;;;;-6.07;64.40;98624.03;5072114;28;20068;-56
2022/01/02 10:53:28;;;;;;;7.35;2.55;;;;;;;-6.04;64.12;98626.31;5072570;28;20064;-58
2022/01/02 10:55:54;;;;;;;3.58;2.05;;;;;;;-5.97;63.79;98632.50;5072181;28;20063;-52
2022/01/02 10:58:19;;;;;;;3.22;2.33;;;;;;;-5.93;63.84;98626.84;5070946;28;20604;-53
2022/01/02 11:00:45;;;;;;;4.22;2.53;;;;;;;-5.91;63.70;98626.72;5071848;28;20055;-55
2022/01/02 11:03:12;;;;;;;4.50;2.75;;;;;;;-5.76;63.52;98629.56;5071362;28;20041;-57
2022/01/02 11:05:39;;;;;;;3.60;2.40;;;;;;;-5.71;63.43;98632.47;5072232;28;20040;-53
2022/01/02 11:08:05;;;;;;;3.85;2.90;;;;;;;-5.76;63.85;98630.38;5070690;28;20036;-55
2022/01/02 11:10:33;;;;;;;3.38;2.15;;;;;;;-5.65;63.66;98626.69;5071840;28;20052;-57
2022/01/02 11:12:59;;;;;;;6.85;3.95;;;;;;;-5.67;63.69;98623.50;5072056;28;20051;-53
2022/01/02 11:15:27;;;;;;;5.80;2.65;;;;;;;-5.62;63.30;98618.66;5070501;28;20044;-55
2022/01/02 11:17:54;;;;;;;5.43;2.53;;;;;;;-5.65;63.36;98615.56;5071993;28;20055;-56
2022/01/02 11:20:22;;;;;;;4.65;2.78;;;;;;;-5.68;63.51;98616.69;5053814;28;20056;-56
2022/01/02 11:23:04;;;;;;;3.35;2.85;;;;;;;-5.66;63.74;98608.81;5071985;28;20408;-54
2022/01/02 11:25:41;;;;;;;4.88;2.70;;;;;;;-5.70;64.07;98610.88;5070766;28;20424;-53
2022/01/02 11:28:25;;;;;;;3.45;2.70;;;;;;;-5.67;64.51;98597.66;5071969;28;20071;-53
2022/01/02 11:30:53;;;;;;;5.10;2.70;;;;;;;-5.68;63.74;98600.38;5071599;28;20037;-53
2022/01/02 11:33:20;;;;;;;3.13;2.58;;;;;;;-5.67;63.91;98594.28;5071827;28;20198;-55
2022/01/02 11:35:47;;;;;;;2.58;2.08;;;;;;;-5.79;64.45;98607.44;5070124;28;20064;-54
2022/01/02 11:38:15;;;;;;;6.97;2.97;;;;;;;-5.88;64.35;98617.84;5071869;28;20040;-52
2022/01/02 11:40:57;;;;;;;4.90;3.15;;;;;;;-5.93;64.63;98613.19;5070145;28;20055;-56
2022/01/02 11:43:35;;;;;;;3.20;1.98;;;;;;;-6.05;64.61;98615.19;5070302;28;20039;-56
2022/01/02 11:46:22;;;;;;;4.00;2.78;;;;;;;-6.01;64.72;98626.81;5071343;28;20051;-56
2022/01/02 11:49:04;;;;;;;4.13;3.13;;;;;;;-5.97;64.93;98624.75;5071476;28;20048;-55
2022/01/02 11:51:56;;;;;;;3.85;2.63;;;;;;;-5.98;63.92;98630.88;5070197;28;20044;-57
2022/01/02 11:54:29;;;;;;;3.72;2.58;;;;;;;-6.03;64.00;98623.59;5059856;28;20544;-52
2022/01/02 11:56:56;;;;;;;9.15;3.72;;;;;;;-6.03;63.49;98639.09;5071686;28;20101;-53
2022/01/02 11:59:39;;;;;;;3.85;2.65;;;;;;;-6.24;63.82;98636.00;5070703;28;20131;-56
2022/01/02 12:02:26;;;;;;;6.35;2.97;;;;;;;-6.20;63.77;98635.56;5072073;28;20071;-56
2022/01/02 12:05:19;;;;;;;3.95;2.95;;;;;;;-6.21;64.35;98644.25;5071567;28;20084;-58
2022/01/02 12:07:55;;;;;;;3.58;2.55;;;;;;;-6.42;64.83;98648.91;5071747;28;20071;-56
2022/01/02 12:10:31;;;;;;;4.10;3.20;;;;;;;-6.35;65.13;98642.22;5071298;28;20070;-56
2022/01/02 12:13:00;;;;;;;8.68;3.20;;;;;;;-6.40;65.12;98647.00;5071205;28;20029;-56
2022/01/02 12:15:32;;;;;;;4.53;3.05;;;;;;;-6.55;64.83;98633.00;5074791;28;20049;-56
2022/01/02 12:18:04;;;;;;;3.38;2.53;;;;;;;-6.57;65.49;98630.56;5075596;28;20067;-57
2022/01/02 12:20:50;;;;;;;6.05;3.22;;;;;;;-6.58;65.69;98622.97;5075115;28;20530;-57
2022/01/02 12:23:34;;;;;;;4.85;2.70;;;;;;;-6.63;65.51;98636.28;5075506;28;20048;-56
2022/01/02 12:26:05;;;;;;;6.45;3.35;;;;;;;-6.55;65.85;98620.09;5075211;28;20036;-55
2022/01/02 12:28:41;;;;;;;3.75;2.45;;;;;;;-6.46;64.98;98632.91;5075469;28;20044;-56
2022/01/02 12:31:12;;;;;;;5.13;2.83;;;;;;;-6.46;65.52;98629.53;5075150;28;20131;-56
2022/01/02 12:33:39;;;;;;;6.63;3.40;;;;;;;-6.51;65.70;98637.69;5073928;28;20570;-55
2022/01/02 12:36:14;;;;;;;4.80;3.22;;;;;;;-6.56;65.58;98636.50;5073555;28;20471;-57
2022/01/02 12:38:52;;;;;;;8.15;2.90;;;;;;;-6.55;65.32;98641.53;5073420;28;20060;-55
2022/01/02 12:41:19;;;;;;;5.50;3.20;;;;;;;-6.55;65.40;98633.00;5074460;28;20048;-57
2022/01/02 12:44:06;;;;;;;4.57;2.60;;;;;;;-6.47;65.23;98644.19;5056887;28;20040;-56
2022/01/02 12:47:02;;;;;;;8.35;3.10;;;;;;;-6.43;64.46;98650.66;5074311;28;20054;-54
2022/01/02 12:49:31;;;;;;;6.30;2.88;;;;;;;-6.44;64.69;98649.06;5074772;28;20491;-56
2022/01/02 12:52:05;;;;;;;10.02;4.43;;;;;;;-6.44;65.36;98651.63;5074344;28;20506;-55
2022/01/02 12:54:34;;;;;;;3.58;2.78;;;;;;;-6.38;64.90;98657.97;5073552;28;20106;-54
2022/01/02 12:57:06;;;;;;;5.47;3.47;;;;;;;-6.33;65.56;98654.94;5074384;28;20044;-56